createdAt,value
2018-05-03T00:03:44.009Z,1007.6
2018-05-03T00:08:44.046Z,1007.4
2018-05-03T00:13:43.974Z,1007.4
2018-05-03T00:18:43.835Z,1007.5
2018-05-03T00:23:44.656Z,1007.5
2018-05-03T00:28:44.313Z,1007.4
2018-05-03T00:33:57.239Z,1007.4
2018-05-03T00:38:57.147Z,1007.5
2018-05-03T00:43:57.079Z,1007.5
2018-05-03T00:48:57.182Z,1007.5
2018-05-03T00:53:57.144Z,1007.5
2018-05-03T00:58:56.951Z,1007.5
2018-05-03T01:03:56.981Z,1007.5
2018-05-03T01:08:57.183Z,1007.5
2018-05-03T01:13:57.182Z,1007.4
2018-05-03T01:18:57.110Z,1007.4
2018-05-03T01:23:57.102Z,1007.4
2018-05-03T01:28:57.165Z,1007.5
2018-05-03T01:33:57.767Z,1007.5
2018-05-03T01:39:00.777Z,1007.5
2018-05-03T01:44:10.065Z,1007.5
2018-05-03T01:49:09.922Z,1007.6
2018-05-03T01:54:09.966Z,1007.6
2018-05-03T01:59:09.988Z,1007.6
2018-05-03T02:04:09.902Z,1007.7
2018-05-03T02:09:09.954Z,1007.7
2018-05-03T02:14:09.771Z,1007.7
2018-05-03T02:19:10.243Z,1007.8
2018-05-03T02:24:10.159Z,1007.8
2018-05-03T02:29:23.024Z,1007.9
2018-05-03T02:34:22.919Z,1008
2018-05-03T02:39:22.844Z,1008.2
2018-05-03T02:44:22.879Z,1008.5
2018-05-03T02:49:22.837Z,1008.4
2018-05-03T02:54:22.700Z,1008.5
2018-05-03T02:59:22.898Z,1008.6
2018-05-03T03:04:23.335Z,1008.7
2018-05-03T03:09:23.269Z,1008.7
2018-05-03T03:14:35.899Z,1008.6
2018-05-03T03:19:35.819Z,1008.7
2018-05-03T03:24:35.740Z,1008.8
2018-05-03T03:29:35.797Z,1008.9
2018-05-03T03:34:35.608Z,1008.9
2018-05-03T03:39:35.724Z,1008.9
2018-05-03T03:44:35.798Z,1009.1
2018-05-03T03:49:35.969Z,1009
2018-05-03T03:54:35.700Z,1009
2018-05-03T03:59:48.274Z,1009.1
2018-05-03T04:04:48.002Z,1009.1
2018-05-03T04:09:48.144Z,1009.2
2018-05-03T04:14:48.184Z,1009.3
2018-05-03T04:19:48.193Z,1009.3
2018-05-03T04:24:48.259Z,1009.4
2018-05-03T04:29:47.971Z,1009.6
2018-05-03T04:34:49.384Z,1009.8
2018-05-03T04:39:49.267Z,1009.8
2018-05-03T04:45:02.031Z,1009.7
2018-05-03T04:50:01.975Z,1009.7
2018-05-03T04:55:01.988Z,1009.7
2018-05-03T05:00:01.917Z,1009.7
2018-05-03T05:05:01.946Z,1009.9
2018-05-03T05:10:01.778Z,1010.2
2018-05-03T05:15:01.773Z,1010
2018-05-03T05:20:06.398Z,1010
2018-05-03T05:25:06.237Z,1010
2018-05-03T05:30:20.935Z,1009.9
2018-05-03T05:35:20.869Z,1009.9
2018-05-03T05:40:20.823Z,1009.9
2018-05-03T05:45:20.650Z,1010
2018-05-03T05:50:20.897Z,1010.1
2018-05-03T05:55:20.669Z,1010.1
2018-05-03T06:00:21.816Z,1010.4
2018-05-03T06:05:20.896Z,1010.4
2018-05-03T06:10:21.200Z,1010.3
2018-05-03T06:15:21.048Z,1010.3
2018-05-03T06:20:20.970Z,1010.2
2018-05-03T06:25:20.863Z,1010.3
2018-05-03T06:30:22.008Z,1010.2
2018-05-03T06:35:21.933Z,1010.2
2018-05-03T06:40:34.642Z,1010.3
2018-05-03T06:45:34.566Z,1010.3
2018-05-03T06:50:34.479Z,1010.3
2018-05-03T06:55:34.538Z,1010.3
2018-05-03T07:00:34.574Z,1010.4
2018-05-03T07:05:34.498Z,1010.3
2018-05-03T07:10:34.368Z,1010.3
2018-05-03T07:15:37.894Z,1010.2
2018-05-03T07:20:37.812Z,1010.3
2018-05-03T07:25:48.325Z,1010.4
2018-05-03T07:30:48.180Z,1010.4
2018-05-03T07:35:48.160Z,1010.3
2018-05-03T07:40:48.687Z,1010.3
2018-05-03T07:45:48.072Z,1010.3
2018-05-03T07:50:48.070Z,1010.3
2018-05-03T07:55:48.195Z,1010.3
2018-05-03T08:00:48.182Z,1010.1
2018-05-03T08:05:48.208Z,1010.3
2018-05-03T08:10:48.392Z,1010.2
2018-05-03T08:15:48.284Z,1010.3
2018-05-03T08:20:48.398Z,1010.2
2018-05-03T08:25:50.315Z,1010.3
2018-05-03T08:30:50.229Z,1010.3
2018-05-03T08:36:02.868Z,1010.2
2018-05-03T08:41:02.592Z,1010.3
2018-05-03T08:46:02.821Z,1010.3
2018-05-03T08:51:02.752Z,1010.3
2018-05-03T08:56:02.619Z,1010.1
2018-05-03T09:01:02.619Z,1010.1
2018-05-03T09:06:02.628Z,1010.1
2018-05-03T09:11:03.374Z,1010.1
2018-05-03T09:16:03.057Z,1010.1
2018-05-03T09:21:15.618Z,1010.1
2018-05-03T09:26:15.609Z,1010
2018-05-03T09:31:15.513Z,1010
2018-05-03T09:36:15.556Z,1010
2018-05-03T09:41:15.368Z,1010
2018-05-03T09:46:15.620Z,1010
2018-05-03T09:51:15.617Z,1010
2018-05-03T09:56:15.786Z,1009.8
2018-05-03T10:01:15.831Z,1009.9
2018-05-03T10:06:15.754Z,1009.9
2018-05-03T10:11:15.633Z,1009.7
2018-05-03T10:16:15.744Z,1010
2018-05-03T10:21:16.762Z,1009.9
2018-05-03T10:26:16.508Z,1009.8
2018-05-03T10:31:29.039Z,1009.7
2018-05-03T10:36:28.766Z,1009.7
2018-05-03T10:41:28.970Z,1009.7
2018-05-03T10:46:28.919Z,1009.7
2018-05-03T10:51:28.781Z,1009.6
2018-05-03T10:56:28.801Z,1009.4
2018-05-03T11:01:28.902Z,1009.3
2018-05-03T11:06:29.904Z,1009.4
2018-05-03T11:11:29.931Z,1009.5
2018-05-03T11:16:42.176Z,1009.4
2018-05-03T11:21:41.962Z,1009.3
2018-05-03T11:26:41.996Z,1009.4
2018-05-03T11:31:41.868Z,1009.2
2018-05-03T11:36:42.299Z,1009.2
2018-05-03T11:41:41.869Z,1009.1
2018-05-03T11:46:41.895Z,1009
2018-05-03T11:51:42.081Z,1008.9
2018-05-03T11:56:41.995Z,1008.9
2018-05-03T12:01:41.875Z,1008.9
2018-05-03T12:06:41.886Z,1008.9
2018-05-03T12:11:42.352Z,1008.8
2018-05-03T12:16:42.307Z,1008.9
2018-05-03T12:21:42.194Z,1008.7
2018-05-03T12:26:54.919Z,1008.8
2018-05-03T12:31:54.780Z,1009
2018-05-03T12:36:54.832Z,1008.9
2018-05-03T12:41:54.801Z,1008.9
2018-05-03T12:46:54.852Z,1008.8
2018-05-03T12:51:54.773Z,1008.6
2018-05-03T12:56:54.665Z,1008.6
2018-05-03T13:01:55.743Z,1008.4
2018-05-03T13:06:55.580Z,1008.5
2018-05-03T13:12:08.490Z,1008.4
2018-05-03T13:17:08.275Z,1008.4
2018-05-03T13:22:08.388Z,1008.4
2018-05-03T13:27:08.307Z,1008.2
2018-05-03T13:32:08.364Z,1008.2
2018-05-03T13:37:08.202Z,1008.2
2018-05-03T13:42:08.308Z,1008.3
2018-05-03T13:47:08.375Z,1008.4
2018-05-03T13:52:08.420Z,1008.3
2018-05-03T13:57:08.312Z,1008.1
2018-05-03T14:02:08.166Z,1008.1
2018-05-03T14:07:08.720Z,1008.1
2018-05-03T14:12:08.981Z,1008.1
2018-05-03T14:17:08.860Z,1008.1
2018-05-03T14:22:21.085Z,1008
2018-05-03T14:27:21.064Z,1008.1
2018-05-03T14:32:20.846Z,1008.2
2018-05-03T14:37:21.125Z,1008.1
2018-05-03T14:42:21.054Z,1008.2
2018-05-03T14:47:24.300Z,1008.3
2018-05-03T14:52:20.854Z,1008.3
2018-05-03T14:57:20.840Z,1008.3
2018-05-03T15:02:20.859Z,1008.3
2018-05-03T15:07:20.846Z,1008.4
2018-05-03T15:12:20.863Z,1008.2
2018-05-03T15:17:21.052Z,1008.2
2018-05-03T15:22:21.795Z,1008.3
2018-05-03T15:27:21.503Z,1008.5
2018-05-03T15:32:35.556Z,1008.5
2018-05-03T15:37:35.300Z,1008.5
2018-05-03T15:42:35.469Z,1008.6
2018-05-03T15:47:35.539Z,1008.8
2018-05-03T15:52:35.289Z,1008.8
2018-05-03T15:57:35.317Z,1009
2018-05-03T16:02:35.323Z,1008.9
2018-05-03T16:07:37.286Z,1009.1
2018-05-03T16:12:39.621Z,1009
2018-05-03T16:17:52.111Z,1009
2018-05-03T16:22:50.552Z,1009
2018-05-03T16:27:50.535Z,1009.2
2018-05-03T16:32:50.520Z,1009.3
2018-05-03T16:37:50.533Z,1009.3
2018-05-03T16:42:50.519Z,1009.6
2018-05-03T16:47:50.525Z,1009.7
2018-05-03T16:52:50.558Z,1009.8
2018-05-03T16:57:50.538Z,1009.9
2018-05-03T17:02:50.570Z,1010
2018-05-03T17:07:50.576Z,1010
2018-05-03T17:12:50.488Z,1010.2
2018-05-03T17:17:56.575Z,1010.3
2018-05-03T17:22:52.669Z,1010.4
2018-05-03T17:28:06.438Z,1010.4
2018-05-03T17:33:06.201Z,1010.4
2018-05-03T17:38:06.175Z,1010.4
2018-05-03T17:43:06.351Z,1010.5
2018-05-03T17:48:06.245Z,1010.6
2018-05-03T17:53:06.286Z,1010.7
2018-05-03T17:58:06.193Z,1010.8
2018-05-03T18:03:06.631Z,1010.8
2018-05-03T18:08:06.240Z,1010.8
2018-05-03T18:13:19.089Z,1011
2018-05-03T18:18:18.840Z,1011.1
2018-05-03T18:23:18.850Z,1011.2
2018-05-03T18:28:18.989Z,1011.6
2018-05-03T18:33:19.057Z,1012.1
2018-05-03T18:38:19.753Z,1012.2
2018-05-03T18:43:20.462Z,1012.2
2018-05-03T18:48:19.795Z,1012.2
2018-05-03T18:53:19.495Z,1012.4
2018-05-03T18:58:19.798Z,1012.4
2018-05-03T19:03:19.552Z,1012.5
2018-05-03T19:08:19.572Z,1012.6
2018-05-03T19:13:19.980Z,1012.7
2018-05-03T19:18:19.723Z,1012.7
2018-05-03T19:23:32.029Z,1012.9
2018-05-03T19:28:31.741Z,1012.9
2018-05-03T19:33:32.535Z,1013
2018-05-03T19:38:31.837Z,1013
2018-05-03T19:43:32.453Z,1013.2
2018-05-03T19:48:32.025Z,1013.3
2018-05-03T19:53:31.901Z,1013.3
2018-05-03T19:58:32.536Z,1013.3
2018-05-03T20:03:32.261Z,1013.4
2018-05-03T20:08:46.980Z,1013.4
2018-05-03T20:13:46.234Z,1013.4
2018-05-03T20:18:46.252Z,1013.5
2018-05-03T20:23:46.251Z,1013.4
2018-05-03T20:28:46.500Z,1013.6
2018-05-03T20:33:46.503Z,1013.7
2018-05-03T20:38:46.387Z,1013.7
2018-05-03T20:43:46.374Z,1013.7
2018-05-03T20:48:46.369Z,1013.6
2018-05-03T20:53:46.375Z,1013.7
2018-05-03T20:58:46.352Z,1013.7
2018-05-03T21:03:46.376Z,1013.7
2018-05-03T21:08:46.406Z,1013.7
2018-05-03T21:13:46.348Z,1013.9
2018-05-03T21:18:57.956Z,1013.9
2018-05-03T21:23:57.872Z,1014.1
2018-05-03T21:28:57.701Z,1014.1
2018-05-03T21:33:57.629Z,1014.1
2018-05-03T21:38:57.615Z,1014.2
2018-05-03T21:43:57.906Z,1014.3
2018-05-03T21:48:57.683Z,1014.3
2018-05-03T21:54:01.775Z,1014.5
2018-05-03T21:59:01.484Z,1014.5
2018-05-03T22:04:10.670Z,1014.8
2018-05-03T22:09:10.326Z,1014.8
2018-05-03T22:14:10.380Z,1014.8
2018-05-03T22:19:10.398Z,1014.8
2018-05-03T22:24:10.378Z,1014.8
2018-05-03T22:29:11.496Z,1014.9
2018-05-03T22:34:11.146Z,1014.9
2018-05-03T22:39:11.174Z,1014.9
2018-05-03T22:44:11.190Z,1015
2018-05-03T22:49:11.224Z,1015
2018-05-03T22:54:11.208Z,1015
2018-05-03T22:59:11.212Z,1015
2018-05-03T23:04:11.210Z,1015
2018-05-03T23:09:11.217Z,1015.1
2018-05-03T23:14:22.827Z,1015
2018-05-03T23:19:22.606Z,1014.9
2018-05-03T23:24:22.469Z,1015
2018-05-03T23:29:22.678Z,1014.9
2018-05-03T23:34:22.477Z,1014.9
2018-05-03T23:39:22.519Z,1015
2018-05-03T23:44:22.479Z,1015
2018-05-03T23:49:22.494Z,1014.9
2018-05-03T23:54:22.493Z,1015.1
2018-05-03T23:59:33.989Z,1015
